Time;durP1;ratioP1;P1;durP2;ratioP2;P2;SDS_P1;SDS_P2;PMS_P1;PMS_P2;Temp;Humidity;BMP_temperature;BMP_pressure;BME280_temperature;BME280_humidity;BME280_pressure;Samples;Min_cycle;Max_cycle;Signal;HPM_P1;HPM_P2
2022/08/07 00:01:06;;;;;;;7.72;4.00;;;;;;;26.51;54.39;100092.03;2095467;28;20048;-76
2022/08/07 00:02:28;;;;;;;;;;;;;;;26.49;54.39;100091.25;2101786;28;20054;-76
2022/08/07 00:03:49;;;;;;;7.10;4.10;;;;;;;26.48;54.49;100092.19;2102122;28;19970;-77
2022/08/07 00:05:12;;;;;;;5.82;3.08;;;;;;;26.46;54.48;100086.00;2101311;28;20812;-76
2022/08/07 00:06:37;;;;;;;9.25;3.65;;;;;;;26.44;54.50;100088.81;2102408;28;20052;-77
2022/08/07 00:07:59;;;;;;;9.30;3.28;;;;;;;26.44;54.57;100090.66;2102864;28;20130;-76
2022/08/07 00:09:21;;;;;;;8.48;3.83;;;;;;;26.44;54.46;100086.13;2100722;28;20156;-76
2022/08/07 00:10:43;;;;;;;7.78;3.22;;;;;;;26.45;54.53;100093.25;2104008;28;21222;-76
2022/08/07 00:12:06;;;;;;;5.50;3.05;;;;;;;26.45;54.62;100082.41;2102148;28;20507;-76
2022/08/07 00:13:28;;;;;;;6.80;3.05;;;;;;;26.45;54.37;100087.00;2100136;28;20097;-77
2022/08/07 00:14:49;;;;;;;5.72;3.10;;;;;;;26.45;54.51;100078.88;2100901;28;20538;-77
2022/08/07 00:16:12;;;;;;;8.18;3.25;;;;;;;26.45;54.57;100082.41;2101721;28;20032;-77
2022/08/07 00:17:35;;;;;;;8.63;3.75;;;;;;;26.45;54.67;100076.16;2102231;28;20124;-77
2022/08/07 00:18:57;;;;;;;5.78;3.42;;;;;;;26.45;54.62;100071.59;2101472;28;20335;-77
2022/08/07 00:20:19;;;;;;;7.00;3.25;;;;;;;26.47;54.66;100068.78;2103449;28;20044;-78
2022/08/07 00:21:42;;;;;;;5.85;2.88;;;;;;;26.46;54.43;100078.75;2108962;28;20058;-77
2022/08/07 00:23:05;;;;;;;6.88;3.28;;;;;;;26.46;54.30;100083.28;2104267;28;20078;-77
2022/08/07 00:24:27;;;;;;;7.38;2.88;;;;;;;26.46;54.56;100077.88;2103457;28;20044;-78
2022/08/07 00:25:49;;;;;;;9.55;4.15;;;;;;;26.46;54.60;100069.75;2100493;28;20176;-77
2022/08/07 00:27:11;;;;;;;6.78;3.80;;;;;;;26.45;54.42;100074.28;2103494;28;20094;-77
2022/08/07 00:28:33;;;;;;;8.63;4.00;;;;;;;26.49;54.30;100080.41;2109883;28;20470;-77
2022/08/07 00:29:56;;;;;;;5.63;3.22;;;;;;;26.48;54.33;100054.28;2095715;28;20032;-78
2022/08/07 00:31:18;;;;;;;6.15;3.60;;;;;;;26.49;54.50;100069.56;2091453;28;20053;-77
2022/08/07 00:32:40;;;;;;;7.30;3.40;;;;;;;26.47;54.53;100074.19;2099736;28;20058;-77
2022/08/07 00:34:02;;;;;;;4.65;3.10;;;;;;;26.47;54.51;100063.38;2101512;28;20040;-77
2022/08/07 00:35:24;;;;;;;7.20;3.10;;;;;;;26.46;54.33;100061.63;2095585;28;20044;-78
2022/08/07 00:36:49;;;;;;;5.55;3.00;;;;;;;26.46;54.18;100062.50;2098802;28;20052;-77
2022/08/07 00:38:10;;;;;;;8.43;4.00;;;;;;;26.46;54.42;100061.63;2102317;28;20044;-77
2022/08/07 00:39:32;;;;;;;4.30;2.95;;;;;;;26.44;54.20;100063.59;2102200;28;20569;-77
2022/08/07 00:40:54;;;;;;;7.95;4.10;;;;;;;26.44;54.28;100055.47;2102398;28;20074;-78
2022/08/07 00:42:17;;;;;;;6.97;3.60;;;;;;;26.45;54.35;100060.75;2102248;28;20040;-78
2022/08/07 00:43:39;;;;;;;6.68;3.65;;;;;;;26.45;54.32;100066.16;2095552;28;20165;-77
2022/08/07 00:45:01;;;;;;;5.85;3.40;;;;;;;26.46;54.35;100058.91;2093860;28;20045;-77
2022/08/07 00:46:23;;;;;;;8.55;2.92;;;;;;;26.46;54.32;100061.63;2096638;28;20133;-78
2022/08/07 00:47:45;;;;;;;9.27;3.38;;;;;;;26.46;54.43;100061.63;2101735;28;20044;-77
2022/08/07 00:49:08;;;;;;;8.80;3.58;;;;;;;26.46;54.21;100069.75;2101243;28;20115;-77
2022/08/07 00:50:29;;;;;;;4.13;2.80;;;;;;;26.46;54.35;100061.63;2101133;28;20147;-77
2022/08/07 00:51:54;;;;;;;6.78;3.25;;;;;;;26.48;54.14;100054.28;2104603;28;21196;-78
2022/08/07 00:53:15;;;;;;;7.80;3.40;;;;;;;26.48;54.03;100055.16;2103308;28;20047;-78
2022/08/07 00:54:37;;;;;;;7.63;3.05;;;;;;;26.49;54.15;100056.03;2102189;28;20503;-77
2022/08/07 00:56:01;;;;;;;7.80;3.25;;;;;;;26.49;53.90;100070.44;2110886;28;20510;-77
2022/08/07 00:57:24;;;;;;;9.45;3.28;;;;;;;26.49;54.03;100056.91;2103554;28;20061;-77
2022/08/07 00:58:46;;;;;;;6.95;3.67;;;;;;;26.52;53.78;100050.41;2104015;28;20075;-77
2022/08/07 01:00:10;;;;;;;9.45;3.42;;;;;;;26.54;53.81;100049.38;2092657;28;20519;-77
2022/08/07 01:01:33;;;;;;;6.25;3.30;;;;;;;26.54;53.55;100043.97;2098491;28;20499;-77
2022/08/07 01:02:55;;;;;;;;;;;;;;;26.54;53.51;100043.09;2095790;28;20512;-77
2022/08/07 01:04:18;;;;;;;6.60;3.60;;;;;;;26.54;53.70;100043.09;2106963;28;19920;-77
2022/08/07 01:05:42;;;;;;;6.95;3.42;;;;;;;26.54;53.53;100051.22;2102595;28;20056;-77
2022/08/07 01:07:06;;;;;;;4.57;2.97;;;;;;;26.54;53.67;100048.50;2101531;28;20059;-76
2022/08/07 01:08:29;;;;;;;7.72;3.40;;;;;;;26.55;53.50;100055.66;2109796;28;20031;-77
2022/08/07 01:09:50;;;;;;;7.63;2.90;;;;;;;26.53;53.52;100044.91;2095508;28;20097;-77
2022/08/07 01:11:14;;;;;;;7.35;3.95;;;;;;;26.53;53.57;100050.34;2101179;28;20051;-77
2022/08/07 01:12:35;;;;;;;5.15;3.15;;;;;;;26.53;53.57;100044.91;2102230;28;20048;-77
2022/08/07 01:13:58;;;;;;;5.80;3.58;;;;;;;26.53;53.56;100038.63;2104614;28;20082;-76
2022/08/07 01:15:20;;;;;;;6.88;3.55;;;;;;;26.53;53.50;100041.34;2103510;28;20041;-77
2022/08/07 01:16:43;;;;;;;5.93;2.78;;;;;;;26.53;53.44;100044.91;2095001;28;20056;-77
2022/08/07 01:18:06;;;;;;;5.45;3.10;;;;;;;26.55;53.51;100048.41;2101182;28;20048;-76
2022/08/07 01:19:29;;;;;;;5.72;2.75;;;;;;;26.56;53.61;100046.56;2093757;28;20194;-78
2022/08/07 01:20:55;;;;;;;6.05;3.38;;;;;;;26.57;53.27;100053.75;2091516;28;20492;-77
2022/08/07 01:22:19;;;;;;;5.60;3.42;;;;;;;26.55;53.45;100040.28;2100621;28;20047;-77
2022/08/07 01:23:43;;;;;;;9.40;3.90;;;;;;;26.56;53.33;100047.44;2109530;28;20052;-77
2022/08/07 01:25:09;;;;;;;5.78;3.22;;;;;;;26.57;53.53;100049.19;2093963;28;20161;-78
2022/08/07 01:26:32;;;;;;;7.82;3.25;;;;;;;26.56;53.34;100043.88;2091489;28;20056;-78
2022/08/07 01:27:54;;;;;;;7.50;3.40;;;;;;;26.54;53.23;100049.38;2090925;28;20048;-78
2022/08/07 01:29:17;;;;;;;6.70;3.17;;;;;;;26.52;53.34;100045.88;2091160;28;20083;-77
2022/08/07 01:30:41;;;;;;;6.22;3.08;;;;;;;26.51;53.42;100046.00;2099096;28;20040;-77
2022/08/07 01:32:04;;;;;;;9.38;3.67;;;;;;;26.51;53.38;100048.72;2101081;28;20048;-77
2022/08/07 01:33:26;;;;;;;6.18;3.15;;;;;;;26.50;53.56;100046.97;2101030;28;20412;-76
2022/08/07 01:34:49;;;;;;;6.75;3.60;;;;;;;26.51;53.62;100051.41;2092814;28;20127;-77
2022/08/07 01:36:12;;;;;;;5.75;3.15;;;;;;;26.50;53.52;100050.53;2098229;28;20090;-77
2022/08/07 01:37:38;;;;;;;9.27;3.42;;;;;;;26.51;53.45;100052.28;2093342;28;20051;-76
2022/08/07 01:39:00;;;;;;;7.38;3.33;;;;;;;26.51;53.69;100048.72;2100204;28;20360;-77
2022/08/07 01:40:25;;;;;;;10.55;3.70;;;;;;;26.52;53.63;100045.00;2100839;28;20049;-77
2022/08/07 01:41:52;;;;;;;6.45;3.30;;;;;;;26.49;53.54;100043.38;2094229;28;20153;-76
2022/08/07 01:43:17;;;;;;;6.93;3.53;;;;;;;26.47;53.64;100047.13;2099074;28;20456;-77
2022/08/07 01:44:39;;;;;;;6.13;3.30;;;;;;;26.45;53.85;100041.81;2100540;28;20058;-77
2022/08/07 01:46:03;;;;;;;6.15;3.33;;;;;;;26.46;53.63;100045.38;2092343;28;20052;-77
2022/08/07 01:47:25;;;;;;;7.43;3.45;;;;;;;26.45;53.85;100039.09;2099647;28;20040;-77
2022/08/07 01:48:49;;;;;;;7.78;3.53;;;;;;;26.47;53.82;100039.88;2095543;28;20052;-76
2022/08/07 01:50:20;;;;;;;8.45;3.38;;;;;;;26.47;53.69;100044.44;2091606;28;20139;-77
2022/08/07 01:51:47;;;;;;;6.05;3.28;;;;;;;26.49;53.83;100037.09;2099309;28;20105;-77
2022/08/07 01:53:14;;;;;;;10.27;3.55;;;;;;;26.49;53.75;100042.50;2101808;28;20105;-78
2022/08/07 01:54:41;;;;;;;7.53;3.72;;;;;;;26.49;53.74;100043.38;2094251;28;20464;-77
2022/08/07 01:56:13;;;;;;;9.07;3.80;;;;;;;26.49;53.75;100039.78;2101215;28;20527;-77
2022/08/07 01:57:39;;;;;;;8.30;2.95;;;;;;;26.50;53.69;100039.72;2095747;28;20118;-76
2022/08/07 01:59:08;;;;;;;7.38;3.65;;;;;;;26.48;53.87;100033.50;2091473;28;20101;-77
2022/08/07 02:00:30;;;;;;;7.63;3.28;;;;;;;26.48;53.67;100033.50;2101758;28;20044;-77
2022/08/07 02:01:59;;;;;;;6.50;3.28;;;;;;;26.47;53.75;100039.00;2092683;28;20087;-77
2022/08/07 02:03:22;;;;;;;7.57;3.30;;;;;;;26.48;53.77;100038.06;2100719;28;20496;-76
2022/08/07 02:04:51;;;;;;;8.52;3.20;;;;;;;26.49;53.78;100045.22;2092427;28;20060;-76
2022/08/07 02:06:17;;;;;;;5.47;3.17;;;;;;;26.49;53.85;100042.50;2093323;28;20060;-76
2022/08/07 02:07:46;;;;;;;9.32;4.40;;;;;;;26.49;53.67;100043.38;2107301;27;20046;-77
2022/08/07 02:09:14;;;;;;;8.15;3.55;;;;;;;26.47;53.86;100033.59;2100662;28;20097;-77
2022/08/07 02:10:39;;;;;;;8.35;4.30;;;;;;;26.46;53.96;100031.84;2101295;28;20036;-77
2022/08/07 02:12:15;;;;;;;6.50;4.10;;;;;;;26.46;53.75;100034.56;2093073;28;20040;-77
2022/08/07 02:13:44;;;;;;;7.95;3.25;;;;;;;26.45;54.06;100036.38;2092902;28;20032;-77
2022/08/07 02:15:07;;;;;;;8.07;3.20;;;;;;;26.43;53.87;100034.75;2090159;28;20044;-77
2022/08/07 02:16:35;;;;;;;6.72;2.88;;;;;;;26.43;53.94;100032.06;2090582;28;20064;-77
2022/08/07 02:17:59;;;;;;;8.65;3.60;;;;;;;26.44;54.12;100039.22;2095119;28;20045;-76
2022/08/07 02:19:22;;;;;;;7.13;3.78;;;;;;;26.45;53.99;100032.84;2097672;28;20064;-77
2022/08/07 02:20:47;;;;;;;7.20;3.42;;;;;;;26.45;54.16;100035.53;2091385;28;20076;-76
2022/08/07 02:22:11;;;;;;;8.38;3.70;;;;;;;26.44;53.99;100029.25;2099584;28;20051;-76
2022/08/07 02:23:37;;;;;;;4.88;3.03;;;;;;;26.44;54.17;100031.09;2093914;28;20060;-76
2022/08/07 02:25:01;;;;;;;5.85;3.50;;;;;;;26.46;54.03;100031.84;2101027;28;20653;-77
2022/08/07 02:26:23;;;;;;;7.75;4.00;;;;;;;26.45;54.04;100033.69;2101731;28;20048;-76
2022/08/07 02:27:48;;;;;;;6.03;3.28;;;;;;;26.45;54.13;100032.84;2092709;28;20067;-76
2022/08/07 02:29:11;;;;;;;7.68;3.22;;;;;;;26.43;54.09;100024.81;2101778;28;20123;-76
2022/08/07 02:30:35;;;;;;;6.32;4.00;;;;;;;26.42;54.17;100033.88;2091840;28;20045;-76
2022/08/07 02:32:00;;;;;;;8.65;3.33;;;;;;;26.42;54.12;100035.72;2097559;28;20083;-76
2022/08/07 02:33:23;;;;;;;6.20;3.53;;;;;;;26.42;54.29;100033.88;2099398;28;20054;-76
2022/08/07 02:34:48;;;;;;;7.03;3.58;;;;;;;26.42;54.40;100033.00;2103318;28;20052;-76
2022/08/07 02:36:12;;;;;;;8.02;3.47;;;;;;;26.43;54.28;100040.19;2101035;28;20052;-76
2022/08/07 02:37:38;;;;;;;5.47;3.47;;;;;;;26.43;54.47;100038.34;2104158;28;20151;-76
2022/08/07 02:39:05;;;;;;;8.45;3.42;;;;;;;26.44;54.41;100044.63;2093150;28;20036;-76
2022/08/07 02:40:30;;;;;;;8.07;3.60;;;;;;;26.43;54.67;100037.47;2098416;28;20055;-76
2022/08/07 02:41:54;;;;;;;9.80;3.25;;;;;;;26.42;54.80;100041.13;2100827;28;20619;-76
2022/08/07 02:43:18;;;;;;;9.98;3.58;;;;;;;26.43;54.97;100037.47;2092278;28;20572;-76
2022/08/07 02:44:42;;;;;;;7.07;3.50;;;;;;;26.43;55.13;100030.22;2107372;28;20028;-76
2022/08/07 02:46:07;;;;;;;5.93;2.97;;;;;;;26.43;55.03;100032.06;2095480;28;20190;-76
2022/08/07 02:47:31;;;;;;;7.75;3.25;;;;;;;26.43;55.14;100029.34;2091229;28;20037;-76
2022/08/07 02:49:00;;;;;;;7.72;3.75;;;;;;;26.44;55.43;100031.09;2091671;28;20055;-76
2022/08/07 02:50:23;;;;;;;6.55;2.95;;;;;;;26.43;55.26;100034.75;2097937;28;20499;-77
2022/08/07 02:51:47;;;;;;;7.40;3.38;;;;;;;26.45;55.54;100043.66;2101045;28;20527;-76
2022/08/07 02:53:12;;;;;;;7.20;3.70;;;;;;;26.44;55.36;100037.38;2101093;28;20059;-76
2022/08/07 02:54:39;;;;;;;8.75;3.80;;;;;;;26.44;55.71;100041.94;2101055;28;20189;-76
2022/08/07 02:56:05;;;;;;;10.40;3.70;;;;;;;26.44;55.52;100036.50;2101967;28;20044;-76
2022/08/07 02:57:29;;;;;;;8.85;4.00;;;;;;;26.43;55.83;100038.34;2101436;28;20040;-75
2022/08/07 02:58:53;;;;;;;6.32;3.42;;;;;;;26.44;55.66;100040.09;2094831;28;20035;-77
2022/08/07 03:00:17;;;;;;;7.53;3.17;;;;;;;26.44;55.57;100047.34;2090851;28;20753;-77
2022/08/07 03:01:40;;;;;;;6.57;3.50;;;;;;;26.44;55.84;100041.94;2103485;28;20052;-76
2022/08/07 03:03:09;;;;;;;6.18;3.50;;;;;;;26.42;55.63;100044.72;2095423;28;20194;-77
2022/08/07 03:04:36;;;;;;;11.88;3.83;;;;;;;26.41;55.79;100044.81;2100286;28;20040;-76
2022/08/07 03:06:00;;;;;;;6.47;3.17;;;;;;;26.40;55.76;100049.34;2090500;28;20114;-77
2022/08/07 03:07:23;;;;;;;6.88;3.67;;;;;;;26.40;55.76;100043.06;2089972;28;20602;-77
2022/08/07 03:08:46;;;;;;;6.88;3.38;;;;;;;26.39;55.69;100042.19;2089740;28;20037;-77
2022/08/07 03:10:09;;;;;;;6.18;3.25;;;;;;;26.40;55.78;100034.94;2096541;28;20508;-76
2022/08/07 03:11:34;;;;;;;10.02;3.70;;;;;;;26.41;55.87;100045.69;2105464;28;20048;-77
2022/08/07 03:12:57;;;;;;;7.80;3.28;;;;;;;26.39;55.87;100046.72;2098130;28;20094;-76
2022/08/07 03:14:19;;;;;;;6.20;3.20;;;;;;;26.38;55.91;100042.31;2106797;28;20055;-77
2022/08/07 03:15:42;;;;;;;7.93;4.05;;;;;;;26.36;56.14;100045.09;2093739;28;20452;-77
2022/08/07 03:17:05;;;;;;;7.05;3.50;;;;;;;26.37;56.10;100054.97;2098759;28;20132;-77
2022/08/07 03:18:29;;;;;;;5.50;3.72;;;;;;;26.37;56.09;100043.25;2091881;28;20102;-77
2022/08/07 03:19:51;;;;;;;7.47;3.63;;;;;;;26.38;56.07;100053.13;2101725;28;20113;-77
2022/08/07 03:21:15;;;;;;;8.27;3.80;;;;;;;26.39;56.40;100044.00;2092022;28;20385;-76
2022/08/07 03:22:40;;;;;;;10.25;3.63;;;;;;;26.39;56.35;100044.00;2098007;28;20138;-76
2022/08/07 03:24:04;;;;;;;6.63;3.50;;;;;;;26.40;56.45;100056.59;2092321;28;20037;-77
2022/08/07 03:25:29;;;;;;;9.07;3.85;;;;;;;26.38;56.28;100043.19;2092422;28;20049;-76
2022/08/07 03:26:55;;;;;;;7.07;3.35;;;;;;;26.39;56.50;100049.44;2090965;28;20446;-77
2022/08/07 03:28:19;;;;;;;5.20;3.38;;;;;;;26.38;56.52;100050.41;2098978;28;20055;-76
2022/08/07 03:29:47;;;;;;;6.05;3.38;;;;;;;26.39;56.50;100047.59;2092306;28;21708;-77
2022/08/07 03:31:19;;;;;;;6.72;3.10;;;;;;;26.38;56.60;100043.19;2098281;28;20523;-77
2022/08/07 03:32:49;;;;;;;6.82;3.45;;;;;;;26.40;56.36;100051.19;2095001;28;20059;-77
2022/08/07 03:34:13;;;;;;;8.75;3.38;;;;;;;26.40;56.58;100043.94;2090769;28;20119;-76
2022/08/07 03:35:38;;;;;;;9.18;3.47;;;;;;;26.41;56.22;100048.38;2091387;28;20510;-76
2022/08/07 03:37:03;;;;;;;7.32;3.10;;;;;;;26.44;56.41;100050.03;2107568;28;20075;-76
2022/08/07 03:38:25;;;;;;;8.65;3.55;;;;;;;26.42;56.37;100047.41;2102714;28;20048;-77
2022/08/07 03:39:47;;;;;;;6.85;3.58;;;;;;;26.43;56.23;100054.59;2092927;28;20157;-77
2022/08/07 03:41:12;;;;;;;7.90;3.65;;;;;;;26.45;56.38;100049.09;2090739;28;20044;-77
2022/08/07 03:42:36;;;;;;;7.43;3.55;;;;;;;26.47;56.36;100057.97;2098176;28;20044;-77
2022/08/07 03:44:00;;;;;;;6.53;2.88;;;;;;;26.47;56.36;100057.97;2099217;28;20044;-77
2022/08/07 03:45:28;;;;;;;8.65;3.70;;;;;;;26.49;56.25;100053.34;2095294;28;20041;-77
2022/08/07 03:46:54;;;;;;;6.15;3.65;;;;;;;26.52;56.30;100050.41;2107717;28;20074;-77
2022/08/07 03:48:15;;;;;;;5.45;3.13;;;;;;;26.54;56.35;100054.78;2094547;28;20057;-76
2022/08/07 03:49:39;;;;;;;6.35;3.28;;;;;;;26.57;56.10;100060.03;2098421;28;20040;-77
2022/08/07 03:51:02;;;;;;;6.55;3.30;;;;;;;26.62;56.24;100065.16;2094712;28;20068;-77
2022/08/07 03:52:32;;;;;;;3.55;2.35;;;;;;;26.66;55.99;100061.28;2100769;28;20044;-78
2022/08/07 03:53:58;;;;;;;7.72;3.17;;;;;;;26.71;55.80;100063.72;2094127;28;20048;-77
2022/08/07 03:55:20;;;;;;;6.25;3.05;;;;;;;26.78;55.79;100070.50;2091157;28;20400;-77
2022/08/07 03:56:44;;;;;;;4.47;3.05;;;;;;;26.83;55.69;100068.38;2096162;28;20052;-78
2022/08/07 03:58:07;;;;;;;7.47;3.22;;;;;;;26.89;55.60;100074.31;2093771;28;20092;-77
2022/08/07 03:59:32;;;;;;;7.57;3.38;;;;;;;26.96;55.54;100067.53;2091865;28;20056;-77
2022/08/07 04:00:57;;;;;;;9.68;4.05;;;;;;;27.04;55.31;100068.91;2097467;28;20039;-77
2022/08/07 04:02:20;;;;;;;8.02;3.10;;;;;;;27.10;55.29;100066.66;2092822;28;20052;-77
2022/08/07 04:03:42;;;;;;;5.20;2.95;;;;;;;27.17;55.07;100067.13;2097936;28;20067;-77
2022/08/07 04:05:06;;;;;;;5.07;3.00;;;;;;;27.22;54.89;100062.28;2095206;28;20054;-78
2022/08/07 04:06:29;;;;;;;7.35;3.38;;;;;;;27.27;54.75;100066.44;2091277;28;20051;-78
2022/08/07 04:07:50;;;;;;;6.57;3.17;;;;;;;27.35;54.67;100063.25;2091494;28;20571;-78
2022/08/07 04:09:17;;;;;;;13.05;3.30;;;;;;;27.41;54.55;100064.69;2091066;28;20036;-77
2022/08/07 04:10:41;;;;;;;7.63;3.97;;;;;;;27.47;54.35;100067.84;2096781;28;20375;-78
2022/08/07 04:12:04;;;;;;;6.97;3.20;;;;;;;27.55;54.19;100072.81;2101494;28;20047;-78
2022/08/07 04:13:27;;;;;;;8.70;3.50;;;;;;;27.64;54.17;100066.78;2102077;28;20052;-78
2022/08/07 04:14:52;;;;;;;6.20;2.83;;;;;;;27.72;54.03;100073.44;2092196;28;20055;-78
2022/08/07 04:16:14;;;;;;;6.45;3.00;;;;;;;27.80;53.92;100074.78;2091867;28;20071;-77
2022/08/07 04:17:37;;;;;;;5.80;3.13;;;;;;;27.91;53.85;100074.91;2090704;28;20131;-77
2022/08/07 04:19:00;;;;;;;6.07;3.22;;;;;;;27.99;53.64;100080.72;2097984;28;20060;-78
2022/08/07 04:20:22;;;;;;;8.23;3.40;;;;;;;28.08;53.52;100085.53;2094445;28;20041;-77
2022/08/07 04:21:45;;;;;;;10.88;4.07;;;;;;;28.17;53.36;100075.91;2099481;28;20040;-77
2022/08/07 04:23:09;;;;;;;8.93;3.15;;;;;;;28.28;53.09;100078.78;2102211;28;20051;-78
2022/08/07 04:24:33;;;;;;;8.60;3.80;;;;;;;28.37;52.75;100070.84;2092458;28;20041;-77
2022/08/07 04:25:57;;;;;;;6.43;2.92;;;;;;;28.45;52.37;100090.22;2092195;28;20083;-77
2022/08/07 04:27:19;;;;;;;8.85;3.35;;;;;;;28.54;52.17;100086.88;2090924;28;20040;-77
2022/08/07 04:28:43;;;;;;;6.47;2.83;;;;;;;28.64;52.20;100091.63;2092585;28;20098;-77
2022/08/07 04:30:06;;;;;;;5.43;3.15;;;;;;;28.72;52.02;100081.97;2100759;28;20079;-77
2022/08/07 04:31:48;;;;;;;5.18;3.00;;;;;;;28.84;51.78;100089.28;2104278;28;20531;-77
2022/08/07 04:33:10;;;;;;;7.85;2.95;;;;;;;28.95;51.60;100082.25;2092767;28;20044;-78
2022/08/07 04:34:37;;;;;;;5.10;3.00;;;;;;;29.06;51.19;100077.78;2098343;28;20503;-77
2022/08/07 04:36:00;;;;;;;6.55;2.92;;;;;;;29.15;51.10;100078.94;2100891;28;20048;-77
2022/08/07 04:37:23;;;;;;;6.07;2.83;;;;;;;29.23;50.76;100085.56;2093527;28;21029;-77
2022/08/07 04:38:47;;;;;;;6.80;3.15;;;;;;;29.30;50.72;100080.56;2092261;28;20146;-77
2022/08/07 04:40:10;;;;;;;8.73;3.22;;;;;;;29.43;50.50;100094.16;2104969;27;20042;-78
2022/08/07 04:41:33;;;;;;;7.28;2.95;;;;;;;29.56;50.28;100081.41;2093636;28;20033;-77
2022/08/07 04:42:54;;;;;;;5.00;2.50;;;;;;;29.68;50.13;100085.91;2099605;28;20501;-78
2022/08/07 04:44:19;;;;;;;4.93;2.58;;;;;;;29.78;49.77;100084.25;2100030;28;20079;-77
2022/08/07 04:45:52;;;;;;;5.45;2.72;;;;;;;29.94;49.83;100100.34;2099915;28;20055;-78
2022/08/07 04:47:26;;;;;;;5.47;2.80;;;;;;;30.09;49.40;100086.44;2099416;28;20129;-77
2022/08/07 04:48:59;;;;;;;6.07;2.78;;;;;;;30.21;48.79;100081.03;2093880;28;20049;-79
2022/08/07 04:50:31;;;;;;;5.35;2.75;;;;;;;30.33;48.40;100086.41;2101269;28;20507;-79
2022/08/07 04:52:12;;;;;;;7.68;2.90;;;;;;;30.50;48.37;100085.16;2095078;28;20529;-79
2022/08/07 04:53:41;;;;;;;5.15;3.10;;;;;;;30.65;48.24;100086.69;2108419;28;20059;-79
2022/08/07 04:55:13;;;;;;;7.03;3.03;;;;;;;30.81;47.74;100083.59;2093138;28;20106;-79
2022/08/07 04:56:44;;;;;;;7.78;2.92;;;;;;;30.93;47.39;100081.75;2109964;28;20047;-78
2022/08/07 04:58:15;;;;;;;7.72;3.42;;;;;;;31.02;46.72;100075.56;2093449;28;20047;-78
2022/08/07 04:59:47;;;;;;;6.88;2.83;;;;;;;31.12;46.38;100082.03;2092587;28;20158;-78
2022/08/07 05:01:17;;;;;;;6.88;2.88;;;;;;;31.22;46.23;100086.63;2099891;28;20656;-78
2022/08/07 05:02:47;;;;;;;6.10;2.63;;;;;;;31.33;45.60;100082.16;2093291;28;20052;-78
2022/08/07 05:04:15;;;;;;;7.50;3.10;;;;;;;31.39;45.62;100092.56;2096760;28;20043;-78
2022/08/07 05:05:45;;;;;;;7.45;3.08;;;;;;;31.47;45.14;100074.59;2091657;28;20048;-78
2022/08/07 05:07:15;;;;;;;6.43;2.85;;;;;;;31.58;44.77;100081.88;2092318;28;20040;-78
2022/08/07 05:08:48;;;;;;;6.82;3.00;;;;;;;31.70;44.32;100074.59;2099097;28;20464;-78
2022/08/07 05:10:12;;;;;;;;;;;;;;;31.82;44.19;100088.09;2101395;28;20032;-77
2022/08/07 05:11:42;;;;;;;7.20;2.70;;;;;;;31.96;44.08;100076.88;2102412;28;19924;-78
2022/08/07 05:13:16;;;;;;;7.07;2.90;;;;;;;32.18;43.51;100081.41;2098647;28;20049;-78
2022/08/07 05:14:42;;;;;;;8.57;3.15;;;;;;;32.38;43.43;100091.50;2092987;28;20047;-77
2022/08/07 05:16:07;;;;;;;3.85;2.92;;;;;;;32.56;43.05;100086.31;2099517;28;20491;-78
2022/08/07 05:17:32;;;;;;;5.40;2.90;;;;;;;32.74;42.72;100087.50;2092619;28;20045;-78
2022/08/07 05:18:59;;;;;;;10.27;3.47;;;;;;;32.80;42.47;100094.28;2103089;28;20138;-77
2022/08/07 05:20:26;;;;;;;6.55;3.05;;;;;;;32.97;41.94;100098.25;2093148;28;20155;-78
2022/08/07 05:21:56;;;;;;;7.47;3.28;;;;;;;33.19;41.50;100089.91;2088125;28;20041;-78
2022/08/07 05:23:22;;;;;;;4.90;3.20;;;;;;;33.35;41.42;100094.88;2089070;28;20120;-78
2022/08/07 05:24:47;;;;;;;6.32;2.65;;;;;;;33.43;41.05;100097.78;2098301;28;21115;-79
2022/08/07 05:26:19;;;;;;;7.53;3.25;;;;;;;33.47;40.75;100091.06;2091039;28;20059;-79
2022/08/07 05:27:46;;;;;;;6.30;2.90;;;;;;;33.59;40.75;100100.88;2098727;28;20047;-80
2022/08/07 05:29:11;;;;;;;5.38;2.75;;;;;;;33.74;40.51;100095.94;2097315;28;20067;-78
2022/08/07 05:30:35;;;;;;;6.05;2.63;;;;;;;33.90;40.16;100096.22;2107961;27;20101;-78
2022/08/07 05:31:59;;;;;;;6.55;3.50;;;;;;;34.00;39.78;100097.13;2101649;28;20512;-79
2022/08/07 05:33:26;;;;;;;6.78;2.92;;;;;;;34.09;39.72;100090.78;2091442;28;20158;-78
2022/08/07 05:34:50;;;;;;;7.30;2.95;;;;;;;34.25;39.68;100093.00;2101358;28;20048;-79
2022/08/07 05:36:13;;;;;;;5.30;3.03;;;;;;;34.56;39.12;100096.44;2108112;28;20621;-79
2022/08/07 05:37:37;;;;;;;6.00;2.80;;;;;;;34.80;38.70;100096.84;2088912;28;20425;-79
2022/08/07 05:39:02;;;;;;;7.10;2.90;;;;;;;34.98;38.36;100097.84;2090924;28;20039;-77
2022/08/07 05:40:25;;;;;;;4.05;2.58;;;;;;;35.13;37.88;100100.94;2097092;28;20059;-77
2022/08/07 05:41:48;;;;;;;5.43;2.75;;;;;;;35.23;37.82;100098.22;2098912;28;20704;-78
2022/08/07 05:43:11;;;;;;;5.03;2.70;;;;;;;35.31;37.66;100096.47;2100727;28;20348;-79
2022/08/07 05:44:36;;;;;;;5.00;2.55;;;;;;;35.38;37.58;100094.81;2104203;28;20043;-77
2022/08/07 05:46:02;;;;;;;5.18;2.92;;;;;;;35.45;37.59;100095.06;2093987;28;20382;-77
2022/08/07 05:47:24;;;;;;;6.90;3.08;;;;;;;35.65;37.26;100087.59;2098112;28;20060;-77
2022/08/07 05:48:46;;;;;;;;;;;;;;;35.77;37.42;100097.41;2100655;28;20125;-77
2022/08/07 05:50:09;;;;;;;;;;;;;;;35.91;37.13;100094.97;2100442;28;19920;-77
2022/08/07 05:51:30;;;;;;;5.85;2.90;;;;;;;36.00;37.25;100092.31;2099455;28;20311;-77
2022/08/07 05:52:53;;;;;;;7.22;3.20;;;;;;;36.05;37.10;100098.22;2101226;28;20422;-77
2022/08/07 05:54:17;;;;;;;4.70;2.78;;;;;;;36.12;36.86;100099.31;2098347;28;20144;-76
2022/08/07 05:55:40;;;;;;;8.30;3.28;;;;;;;36.07;36.83;100097.06;2087548;28;20052;-76
2022/08/07 05:57:04;;;;;;;6.45;2.67;;;;;;;36.03;36.87;100094.78;2102575;28;20093;-76
2022/08/07 05:58:28;;;;;;;5.68;2.90;;;;;;;35.97;37.42;100096.28;2092578;28;20075;-76
2022/08/07 05:59:52;;;;;;;7.68;2.97;;;;;;;36.07;37.29;100098.94;2101244;28;20059;-76
2022/08/07 06:01:17;;;;;;;8.23;3.05;;;;;;;36.19;37.17;100104.06;2093685;28;20044;-76
2022/08/07 06:02:48;;;;;;;6.03;2.83;;;;;;;36.32;36.80;100101.81;2099337;28;20623;-77
2022/08/07 06:04:14;;;;;;;5.13;2.88;;;;;;;36.52;36.79;100097.00;2099897;28;20062;-76
2022/08/07 06:05:38;;;;;;;6.68;2.97;;;;;;;36.69;36.31;100095.28;2107361;28;20043;-77
2022/08/07 06:07:05;;;;;;;5.85;2.80;;;;;;;36.71;36.28;100102.34;2093127;28;20044;-77
2022/08/07 06:08:31;;;;;;;4.55;2.88;;;;;;;36.73;36.10;100099.44;2090038;28;20150;-76
2022/08/07 06:09:54;;;;;;;7.00;2.88;;;;;;;36.77;35.88;100091.72;2095345;28;20557;-77
2022/08/07 06:11:16;;;;;;;6.53;2.67;;;;;;;36.89;35.62;100104.22;2092498;28;20066;-77
2022/08/07 06:12:39;;;;;;;5.00;2.83;;;;;;;36.97;35.41;100104.25;2087683;28;20041;-77
2022/08/07 06:14:01;;;;;;;4.45;2.70;;;;;;;36.76;35.34;100095.50;2093218;28;20601;-77
2022/08/07 06:15:24;;;;;;;5.13;3.03;;;;;;;36.59;35.25;100099.97;2092786;28;20110;-77
2022/08/07 06:16:49;;;;;;;6.22;2.83;;;;;;;36.57;35.08;100099.25;2093368;28;20147;-77
2022/08/07 06:18:13;;;;;;;4.18;2.85;;;;;;;36.60;35.10;100090.69;2098475;28;20535;-79
2022/08/07 06:19:35;;;;;;;6.45;2.60;;;;;;;36.66;35.05;100095.59;2103010;28;20036;-77
2022/08/07 06:20:59;;;;;;;11.70;2.70;;;;;;;36.75;35.20;100108.41;2091744;28;20040;-79
2022/08/07 06:22:25;;;;;;;8.05;3.60;;;;;;;36.75;35.14;100099.28;2090421;28;20062;-80
2022/08/07 06:23:55;;;;;;;4.50;2.33;;;;;;;36.63;34.83;100102.22;2094189;28;20051;-79
2022/08/07 06:25:18;;;;;;;6.85;2.83;;;;;;;36.52;34.84;100101.63;2088429;28;20052;-77
2022/08/07 06:26:41;;;;;;;6.20;3.85;;;;;;;36.49;34.75;100099.22;2096133;28;20135;-79
2022/08/07 06:28:03;;;;;;;5.22;2.90;;;;;;;36.41;34.58;100091.75;2089673;28;20131;-80
2022/08/07 06:29:27;;;;;;;6.28;2.53;;;;;;;36.34;34.59;100091.50;2092500;28;20083;-79
2022/08/07 06:30:50;;;;;;;4.88;2.72;;;;;;;36.30;34.68;100101.09;2088110;28;20222;-79
2022/08/07 06:32:16;;;;;;;7.00;2.95;;;;;;;36.22;34.74;100091.91;2097583;28;20039;-80
2022/08/07 06:33:38;;;;;;;7.47;2.80;;;;;;;36.16;35.07;100098.88;2092096;28;20048;-78
2022/08/07 06:35:01;;;;;;;6.28;2.70;;;;;;;36.22;34.86;100094.66;2105966;28;20075;-79